Time;durP1;ratioP1;P1;durP2;ratioP2;P2;SDS_P1;SDS_P2;PMS_P1;PMS_P2;Temp;Humidity;BMP_temperature;BMP_pressure;BME280_temperature;BME280_humidity;BME280_pressure;Samples;Min_cycle;Max_cycle;Signal;HPM_P1;HPM_P2
2023/04/13 00:04:03;;;;;;;;;;;;;;;;;;4608601;30;19939;-83
2023/04/13 00:06:51;;;;;;;;;;;;;;;;;;4639704;30;19935;-83
2023/04/13 00:09:49;;;;;;;;;;;;;;;;;;4638307;30;19943;-83
2023/04/13 00:12:41;;;;;;;;;;;;;;;;;;4635243;30;19978;-83
2023/04/13 00:21:19;;;;;;;;;;;;;;;;;;4611013;30;20081;-84
2023/04/13 00:27:09;;;;;;;;;;;;;;;;;;4645582;30;19927;-84
2023/04/13 00:30:09;;;;;;;;;;;;;;;;;;4661173;30;19962;-83
2023/04/13 00:32:53;;;;;;;;;;;;;;;;;;4690240;29;20014;-84
2023/04/13 00:38:35;;;;;;;;;;;;;;;;;;4711272;30;20295;-84
2023/04/13 00:48:08;;;;;;;;;;;;;;;;;;4641796;30;20000;-83
2023/04/13 00:51:18;;;;;;;;;;;;;;;;;;;;;
2023/04/13 01:30:24;;;;;;;;;;;;;;;;;;4641135;30;19974;-85
2023/04/13 01:40:07;;;;;;;;;;;;;;;;;;;;;
2023/04/13 01:46:03;;;;;;;;;;;;;;;;;;;;;
2023/04/13 01:48:57;;;;;;;;;;;;;;;;;;4564907;31;19933;-85
2023/04/13 02:01:09;;;;;;;;;;;;;;;;;;4657266;30;19934;-85
2023/04/13 02:04:14;;;;;;;;;;;;;;;;;;4659045;30;19956;-85
2023/04/13 02:07:07;;;;;;;;;;;;;;;;;;4621655;30;20570;-85
2023/04/13 02:12:58;;;;;;;;;;;;;;;;;;4587309;30;20130;-84
2023/04/13 02:16:05;;;;;;;;;;;;;;;;;;;;;
2023/04/13 02:28:29;;;;;;;;;;;;;;;;;;;;;
2023/04/13 02:34:50;;;;;;;;;;;;;;;;;;;;;
2023/04/13 02:58:48;;;;;;;;;;;;;;;;;;4746799;29;20349;-84
2023/04/13 03:28:58;;;;;;;;;;;;;;;;;;;;;
2023/04/13 03:32:03;;;;;;;;;;;;;;;;;;;;;
2023/04/13 03:40:54;;;;;;;;;;;;;;;;;;;;;
2023/04/13 03:44:04;;;;;;;;;;;;;;;;;;;;;
2023/04/13 03:46:53;;;;;;;;;;;;;;;;;;;;;
2023/04/13 03:50:41;;;;;;;;;;;;;;;;;;;;;
2023/04/13 03:52:39;;;;;;;;;;;;;;;;;;;;;
2023/04/13 03:56:01;;;;;;;;;;;;;;;;;;4572615;31;19937;-84
2023/04/13 04:18:46;;;;;;;;;;;;;;;;;;;;;
2023/04/13 04:21:36;;;;;;;;;;;;;;;;;;4731281;30;19938;-84
2023/04/13 04:27:13;;;;;;;;;;;;;;;;;;4693998;30;19934;-84
2023/04/13 04:30:19;;;;;;;;;;;;;;;;;;;;;
2023/04/13 04:36:22;;;;;;;;;;;;;;;;;;;;;
2023/04/13 04:39:00;;;;;;;;;;;;;;;;;;4699996;30;20544;-83
2023/04/13 04:45:22;;;;;;;;;;;;;;;;;;;;;
2023/04/13 04:55:53;;;;;;;;;;;;;;;;;;4859362;24;20422;-83
2023/04/13 05:01:25;;;;;;;;;;;;;;;;;;4712934;30;19937;-84
2023/04/13 05:04:11;;;;;;;;;;;;;;;;;;4703377;30;19930;-84
2023/04/13 05:09:26;;;;;;;;;;;;;;;;;;4697748;30;19930;-84
2023/04/13 05:12:08;;;;;;;;;;;;;;;;;;;;;
2023/04/13 05:14:50;;;;;;;;;;;;;;;;;;4717514;30;19941;-85
2023/04/13 05:17:40;;;;;;;;;;;;;;;;;;4710557;30;19926;-85
2023/04/13 05:20:16;;;;;;;;;;;;;;;;;;4701195;30;19938;-84
2023/04/13 05:22:42;;;;;;;;;;;;;;;;;;4708534;30;19992;-84
2023/04/13 05:25:28;;;;;;;;;;;;;;;;;;4725239;30;19977;-84
2023/04/13 05:27:57;;;;;;;;;;;;;;;;;;4710967;30;23006;-84
2023/04/13 05:33:05;;;;;;;;;;;;;;;;;;5234964;24;19935;-84
2023/04/13 05:35:31;;;;;;;;;;;;;;;;;;4709763;30;19926;-84
2023/04/13 05:38:00;;;;;;;;;;;;;;;;;;4728587;30;19930;-85
2023/04/13 05:40:29;;;;;;;;;;;;;;;;;;4691788;30;20279;-84
2023/04/13 05:43:00;;;;;;;;;;;;;;;;;;4702422;30;19935;-84
2023/04/13 05:45:29;;;;;;;;;;;;;;;;;;4705150;30;20024;-84
2023/04/13 05:47:55;;;;;;;;;;;;;;;;;;4703426;30;20440;-84
2023/04/13 05:50:22;;;;;;;;;;;;;;;;;;4691469;30;19935;-84
2023/04/13 05:52:51;;;;;;;;;;;;;;;;;;4698314;30;19934;-84
2023/04/13 05:55:26;;;;;;;;;;;;;;;;;;4704846;30;19933;-84
2023/04/13 05:57:55;;;;;;;;;;;;;;;;;;4698941;30;20050;-84
2023/04/13 06:00:30;;;;;;;;;;;;;;;;;;4700341;30;19938;-83
2023/04/13 06:02:58;;;;;;;;;;;;;;;;;;4706531;30;19969;-84
2023/04/13 06:05:34;;;;;;;;;;;;;;;;;;;;;
2023/04/13 06:08:09;;;;;;;;;;;;;;;;;;4701717;30;19934;-84
2023/04/13 06:10:35;;;;;;;;;;;;;;;;;;4706307;30;19938;-84
2023/04/13 06:19:18;;;;;;;;;;;;;;;;;;;;;
2023/04/13 06:25:23;;;;;;;;;;;;;;;;;;4665092;30;19951;-85
2023/04/13 06:28:30;;;;;;;;;;;;;;;;;;4660639;30;19961;-86
2023/04/13 06:31:29;;;;;;;;;;;;;;;;;;4659095;30;19926;-85
2023/04/13 06:34:32;;;;;;;;;;;;;;;;;;4665480;30;19942;-85
2023/04/13 06:46:27;;;;;;;;;;;;;;;;;;4603315;30;19940;-85
2023/04/13 06:51:59;;;;;;;;;;;;;;;;;;4581364;31;20015;-85
2023/04/13 07:06:30;;;;;;;;;;;;;;;;;;5519220;24;19989;-87
2023/04/13 07:08:56;;;;;;;;;;;;;;;;;;4715368;30;19926;-87
2023/04/13 07:11:22;;;;;;;;;;;;;;;;;;4716095;30;19938;-87
2023/04/13 07:13:48;;;;;;;;;;;;;;;;;;4724312;30;20115;-87
2023/04/13 07:16:14;;;;;;;;;;;;;;;;;;4727569;30;19926;-87
2023/04/13 07:18:40;;;;;;;;;;;;;;;;;;4703168;30;20410;-87
2023/04/13 07:21:06;;;;;;;;;;;;;;;;;;4688357;30;19966;-87
2023/04/13 07:23:32;;;;;;;;;;;;;;;;;;4708162;30;20296;-87
2023/04/13 07:25:58;;;;;;;;;;;;;;;;;;4705497;30;19930;-87
2023/04/13 07:28:24;;;;;;;;;;;;;;;;;;4701307;30;19984;-87
2023/04/13 07:30:50;;;;;;;;;;;;;;;;;;4713174;30;19985;-87
2023/04/13 07:33:16;;;;;;;;;;;;;;;;;;4706660;30;20026;-87
2023/04/13 07:35:42;;;;;;;;;;;;;;;;;;4718599;30;19931;-87
2023/04/13 07:38:08;;;;;;;;;;;;;;;;;;4718909;30;20009;-87
2023/04/13 07:40:34;;;;;;;;;;;;;;;;;;4706353;30;20021;-87
2023/04/13 07:43:00;;;;;;;;;;;;;;;;;;4722775;30;20020;-85
2023/04/13 07:45:26;;;;;;;;;;;;;;;;;;4708557;30;20067;-85
2023/04/13 07:47:53;;;;;;;;;;;;;;;;;;4716935;30;19926;-84
2023/04/13 07:50:19;;;;;;;;;;;;;;;;;;4709765;30;20278;-85
2023/04/13 07:52:45;;;;;;;;;;;;;;;;;;4724758;30;19930;-85
2023/04/13 07:55:11;;;;;;;;;;;;;;;;;;4720562;30;19935;-85
2023/04/13 07:57:37;;;;;;;;;;;;;;;;;;4721960;30;19937;-84
2023/04/13 08:00:04;;;;;;;;;;;;;;;;;;4721694;30;19930;-85
2023/04/13 08:02:30;;;;;;;;;;;;;;;;;;4718366;30;20378;-85
2023/04/13 08:04:56;;;;;;;;;;;;;;;;;;4722007;30;20009;-85
2023/04/13 08:07:22;;;;;;;;;;;;;;;;;;4712306;30;19934;-85
2023/04/13 08:09:51;;;;;;;;;;;;;;;;;;4712011;30;19938;-85
2023/04/13 08:12:17;;;;;;;;;;;;;;;;;;4703615;30;19930;-85
2023/04/13 08:14:43;;;;;;;;;;;;;;;;;;4723694;30;20387;-85
2023/04/13 08:17:09;;;;;;;;;;;;;;;;;;4697934;30;20409;-86
2023/04/13 08:19:35;;;;;;;;;;;;;;;;;;4707107;30;20163;-85
2023/04/13 08:22:01;;;;;;;;;;;;;;;;;;4720771;30;20401;-85
2023/04/13 08:24:27;;;;;;;;;;;;;;;;;;4709794;30;19980;-84
2023/04/13 08:26:54;;;;;;;;;;;;;;;;;;4725002;30;20374;-84
2023/04/13 08:29:19;;;;;;;;;;;;;;;;;;4727360;30;19934;-85
2023/04/13 08:31:45;;;;;;;;;;;;;;;;;;4710224;30;20310;-85
2023/04/13 08:34:12;;;;;;;;;;;;;;;;;;4711028;30;19937;-87
2023/04/13 08:36:38;;;;;;;;;;;;;;;;;;4708694;30;19983;-87
2023/04/13 08:39:08;;;;;;;;;;;;;;;;;;4715953;30;20012;-87
2023/04/13 08:41:34;;;;;;;;;;;;;;;;;;4710912;30;19960;-84
2023/04/13 08:44:06;;;;;;;;;;;;;;;;;;4715594;30;19930;-85
2023/04/13 08:46:35;;;;;;;;;;;;;;;;;;4710923;30;19926;-84
2023/04/13 08:49:01;;;;;;;;;;;;;;;;;;4705665;30;19930;-84
2023/04/13 08:51:28;;;;;;;;;;;;;;;;;;4717567;30;20011;-87
2023/04/13 08:53:55;;;;;;;;;;;;;;;;;;4724414;30;19926;-87
2023/04/13 08:56:21;;;;;;;;;;;;;;;;;;4726827;30;19934;-87
2023/04/13 08:58:47;;;;;;;;;;;;;;;;;;4719868;30;20367;-87
2023/04/13 09:01:13;;;;;;;;;;;;;;;;;;4720947;30;19959;-87
2023/04/13 09:03:39;;;;;;;;;;;;;;;;;;4733283;30;19930;-89
2023/04/13 09:06:05;;;;;;;;;;;;;;;;;;4718502;30;20442;-88
2023/04/13 09:08:34;;;;;;;;;;;;;;;;;;4731657;30;19930;-90
2023/04/13 09:11:00;;;;;;;;;;;;;;;;;;4715862;30;19988;-88
2023/04/13 09:13:26;;;;;;;;;;;;;;;;;;4729980;30;20401;-88
2023/04/13 09:15:52;;;;;;;;;;;;;;;;;;4715901;30;19984;-87
2023/04/13 09:18:18;;;;;;;;;;;;;;;;;;4712012;30;20454;-88
2023/04/13 09:20:44;;;;;;;;;;;;;;;;;;4731344;30;20302;-88
2023/04/13 09:23:11;;;;;;;;;;;;;;;;;;4725410;30;21818;-88
2023/04/13 09:25:37;;;;;;;;;;;;;;;;;;4713363;30;19930;-88
2023/04/13 09:28:03;;;;;;;;;;;;;;;;;;4704082;30;19965;-88
2023/04/13 09:30:29;;;;;;;;;;;;;;;;;;4729689;30;20410;-88
2023/04/13 09:32:55;;;;;;;;;;;;;;;;;;4716790;30;19934;-89
2023/04/13 09:35:21;;;;;;;;;;;;;;;;;;4714484;30;19998;-89
2023/04/13 09:37:48;;;;;;;;;;;;;;;;;;4718042;30;19930;-89
2023/04/13 09:40:14;;;;;;;;;;;;;;;;;;4700306;30;19931;-88
2023/04/13 09:42:40;;;;;;;;;;;;;;;;;;4726713;30;19989;-88
2023/04/13 09:45:06;;;;;;;;;;;;;;;;;;4732796;30;20275;-88
2023/04/13 09:47:32;;;;;;;;;;;;;;;;;;4752909;30;20496;-88
2023/04/13 09:49:58;;;;;;;;;;;;;;;;;;4701245;30;19965;-88
2023/04/13 09:52:24;;;;;;;;;;;;;;;;;;4727474;30;20363;-88
2023/04/13 09:54:50;;;;;;;;;;;;;;;;;;4728481;30;19952;-89
2023/04/13 09:57:16;;;;;;;;;;;;;;;;;;4707420;30;20440;-88
2023/04/13 09:59:42;;;;;;;;;;;;;;;;;;4704859;30;19987;-88
2023/04/13 10:02:08;;;;;;;;;;;;;;;;;;4709207;30;19926;-88
2023/04/13 10:04:34;;;;;;;;;;;;;;;;;;4731880;30;19977;-88
2023/04/13 10:07:00;;;;;;;;;;;;;;;;;;4703609;30;19935;-88
2023/04/13 10:09:26;;;;;;;;;;;;;;;;;;4733382;30;19930;-88
2023/04/13 10:11:52;;;;;;;;;;;;;;;;;;4734766;30;20017;-88
2023/04/13 10:14:18;;;;;;;;;;;;;;;;;;4745728;30;20366;-87
2023/04/13 10:16:45;;;;;;;;;;;;;;;;;;4741470;30;20302;-87
2023/04/13 10:19:10;;;;;;;;;;;;;;;;;;4721451;30;20046;-88
2023/04/13 10:21:38;;;;;;;;;;;;;;;;;;4721571;30;19930;-88
2023/04/13 10:24:04;;;;;;;;;;;;;;;;;;4718102;30;20418;-87
2023/04/13 10:26:30;;;;;;;;;;;;;;;;;;4725396;30;19973;-84
2023/04/13 10:28:56;;;;;;;;;;;;;;;;;;4721436;30;19937;-85
2023/04/13 10:31:22;;;;;;;;;;;;;;;;;;4720716;30;19981;-85
2023/04/13 10:33:48;;;;;;;;;;;;;;;;;;4705820;30;19957;-86
2023/04/13 10:36:14;;;;;;;;;;;;;;;;;;4723741;30;20333;-85
2023/04/13 10:38:40;;;;;;;;;;;;;;;;;;4724675;30;19987;-88
2023/04/13 10:41:06;;;;;;;;;;;;;;;;;;4720882;30;19985;-87
2023/04/13 10:43:33;;;;;;;;;;;;;;;;;;4711068;30;19977;-88
2023/04/13 10:45:59;;;;;;;;;;;;;;;;;;4716326;30;19926;-89
2023/04/13 10:48:26;;;;;;;;;;;;;;;;;;4713855;30;20003;-89
2023/04/13 10:50:52;;;;;;;;;;;;;;;;;;4713893;30;19929;-89
2023/04/13 10:53:17;;;;;;;;;;;;;;;;;;4718768;30;19930;-85
2023/04/13 10:55:43;;;;;;;;;;;;;;;;;;4728843;30;19930;-85
2023/04/13 10:58:09;;;;;;;;;;;;;;;;;;4734393;30;19925;-85
2023/04/13 11:00:35;;;;;;;;;;;;;;;;;;4731675;30;20002;-87
2023/04/13 11:03:01;;;;;;;;;;;;;;;;;;4705811;30;19981;-86
2023/04/13 11:05:28;;;;;;;;;;;;;;;;;;4743084;30;19930;-87
2023/04/13 11:07:55;;;;;;;;;;;;;;;;;;4715737;30;19957;-86
2023/04/13 11:10:21;;;;;;;;;;;;;;;;;;4725813;30;19941;-86
2023/04/13 11:12:47;;;;;;;;;;;;;;;;;;4743524;30;19930;-86
2023/04/13 11:15:13;;;;;;;;;;;;;;;;;;4741899;30;20026;-87
2023/04/13 11:17:39;;;;;;;;;;;;;;;;;;4727633;30;19930;-86
2023/04/13 11:20:09;;;;;;;;;;;;;;;;;;4738574;30;19973;-87
2023/04/13 11:22:35;;;;;;;;;;;;;;;;;;4716992;30;20071;-86
2023/04/13 11:25:01;;;;;;;;;;;;;;;;;;4715446;30;19987;-87
2023/04/13 11:27:27;;;;;;;;;;;;;;;;;;4704228;30;19967;-86
2023/04/13 11:29:53;;;;;;;;;;;;;;;;;;4705473;30;19926;-87
2023/04/13 11:32:19;;;;;;;;;;;;;;;;;;4723802;30;19926;-86
2023/04/13 11:34:48;;;;;;;;;;;;;;;;;;4709710;30;19933;-87
2023/04/13 11:37:14;;;;;;;;;;;;;;;;;;4705507;30;20397;-87
2023/04/13 11:39:42;;;;;;;;;;;;;;;;;;4706871;30;19969;-86
2023/04/13 11:42:08;;;;;;;;;;;;;;;;;;4717567;30;19930;-86
2023/04/13 11:44:34;;;;;;;;;;;;;;;;;;4707453;30;19926;-86
2023/04/13 11:47:00;;;;;;;;;;;;;;;;;;4704033;30;20461;-86
2023/04/13 11:49:26;;;;;;;;;;;;;;;;;;4717627;30;19930;-86
2023/04/13 11:51:52;;;;;;;;;;;;;;;;;;4699980;30;19969;-86
2023/04/13 11:54:18;;;;;;;;;;;;;;;;;;4706761;30;20415;-86
2023/04/13 11:56:46;;;;;;;;;;;;;;;;;;4705601;30;19938;-86
2023/04/13 11:59:12;;;;;;;;;;;;;;;;;;4711376;30;19945;-85
2023/04/13 12:01:39;;;;;;;;;;;;;;;;;;4712989;30;19930;-86
2023/04/13 12:04:05;;;;;;;;;;;;;;;;;;4724204;30;20029;-86
2023/04/13 12:06:31;;;;;;;;;;;;;;;;;;4711442;30;20291;-87
2023/04/13 12:08:57;;;;;;;;;;;;;;;;;;4715094;30;19934;-85
2023/04/13 12:11:23;;;;;;;;;;;;;;;;;;4709476;30;20298;-86
2023/04/13 12:13:55;;;;;;;;;;;;;;;;;;4717927;30;20393;-85
2023/04/13 12:16:21;;;;;;;;;;;;;;;;;;4709373;30;19944;-85
2023/04/13 12:18:47;;;;;;;;;;;;;;;;;;4714363;30;20011;-85
2023/04/13 12:21:13;;;;;;;;;;;;;;;;;;4726736;30;21355;-86
2023/04/13 12:23:39;;;;;;;;;;;;;;;;;;4710319;30;19934;-88
2023/04/13 12:26:05;;;;;;;;;;;;;;;;;;4706048;30;19926;-86
2023/04/13 12:28:31;;;;;;;;;;;;;;;;;;4729343;30;19926;-85
2023/04/13 12:30:57;;;;;;;;;;;;;;;;;;4719863;30;19926;-86
2023/04/13 12:33:23;;;;;;;;;;;;;;;;;;4728904;30;19947;-86
2023/04/13 12:35:52;;;;;;;;;;;;;;;;;;4710360;30;19930;-87
2023/04/13 12:38:18;;;;;;;;;;;;;;;;;;4728834;30;20512;-86
2023/04/13 12:40:44;;;;;;;;;;;;;;;;;;4711471;30;20314;-87
2023/04/13 12:43:10;;;;;;;;;;;;;;;;;;4709037;30;22071;-87
2023/04/13 12:45:36;;;;;;;;;;;;;;;;;;4712331;30;19930;-86
2023/04/13 12:48:02;;;;;;;;;;;;;;;;;;4721691;30;20447;-86
2023/04/13 12:50:28;;;;;;;;;;;;;;;;;;4734429;30;19937;-87
2023/04/13 12:52:54;;;;;;;;;;;;;;;;;;4703149;30;20029;-86
2023/04/13 12:55:20;;;;;;;;;;;;;;;;;;4722468;30;19930;-86
2023/04/13 12:57:46;;;;;;;;;;;;;;;;;;4704635;30;19931;-86
2023/04/13 13:00:14;;;;;;;;;;;;;;;;;;4720724;30;20012;-87
2023/04/13 13:02:40;;;;;;;;;;;;;;;;;;4726088;30;19938;-86
2023/04/13 13:05:08;;;;;;;;;;;;;;;;;;4709337;30;20021;-86
2023/04/13 13:07:34;;;;;;;;;;;;;;;;;;4711661;30;20098;-86
2023/04/13 13:10:00;;;;;;;;;;;;;;;;;;4728939;30;19930;-86
2023/04/13 13:12:28;;;;;;;;;;;;;;;;;;4716334;30;19926;-86
2023/04/13 13:14:54;;;;;;;;;;;;;;;;;;4718927;30;20028;-86
2023/04/13 13:17:20;;;;;;;;;;;;;;;;;;4739462;30;20365;-86
2023/04/13 13:19:46;;;;;;;;;;;;;;;;;;4723079;30;19957;-85
2023/04/13 13:22:12;;;;;;;;;;;;;;;;;;4724920;30;19933;-86
2023/04/13 13:24:38;;;;;;;;;;;;;;;;;;4727965;30;19930;-87
2023/04/13 13:27:04;;;;;;;;;;;;;;;;;;4710247;30;19930;-86
2023/04/13 13:29:32;;;;;;;;;;;;;;;;;;4710749;30;19931;-86
2023/04/13 13:31:58;;;;;;;;;;;;;;;;;;4717670;30;19926;-85
2023/04/13 13:34:24;;;;;;;;;;;;;;;;;;4711063;30;19953;-85
2023/04/13 13:36:50;;;;;;;;;;;;;;;;;;4709407;30;19936;-85
2023/04/13 13:39:16;;;;;;;;;;;;;;;;;;4724920;30;19960;-86
2023/04/13 13:41:42;;;;;;;;;;;;;;;;;;4724977;30;19930;-85
2023/04/13 13:44:08;;;;;;;;;;;;;;;;;;4707357;30;19932;-86
2023/04/13 13:46:34;;;;;;;;;;;;;;;;;;4723324;30;20012;-85
2023/04/13 13:49:00;;;;;;;;;;;;;;;;;;4727093;30;19979;-86
2023/04/13 13:51:27;;;;;;;;;;;;;;;;;;4724627;30;19930;-86
2023/04/13 13:53:53;;;;;;;;;;;;;;;;;;4728387;30;20527;-86
2023/04/13 13:56:19;;;;;;;;;;;;;;;;;;4707161;30;20006;-85
2023/04/13 13:58:45;;;;;;;;;;;;;;;;;;4724940;30;20405;-86
2023/04/13 14:01:11;;;;;;;;;;;;;;;;;;4720735;30;19934;-86
2023/04/13 14:03:37;;;;;;;;;;;;;;;;;;4738318;30;20439;-86
2023/04/13 14:06:03;;;;;;;;;;;;;;;;;;4713290;30;21848;-86
2023/04/13 14:08:29;;;;;;;;;;;;;;;;;;4709876;30;19962;-85
2023/04/13 14:10:55;;;;;;;;;;;;;;;;;;4703834;30;20009;-85
2023/04/13 14:13:22;;;;;;;;;;;;;;;;;;4727147;30;19930;-86
2023/04/13 14:25:24;;;;;;;;;;;;;;;;;;;;;
2023/04/13 14:30:22;;;;;;;;;;;;;;;;;;4714001;30;19941;-85
2023/04/13 14:32:50;;;;;;;;;;;;;;;;;;4694129;30;19931;-85
2023/04/13 14:35:16;;;;;;;;;;;;;;;;;;4718268;30;19957;-85
2023/04/13 14:37:42;;;;;;;;;;;;;;;;;;4704368;30;19961;-85
2023/04/13 14:40:13;;;;;;;;;;;;;;;;;;4692757;30;19938;-86
2023/04/13 14:42:39;;;;;;;;;;;;;;;;;;4694952;30;20036;-85
2023/04/13 14:45:05;;;;;;;;;;;;;;;;;;4694045;30;19985;-85
2023/04/13 14:47:31;;;;;;;;;;;;;;;;;;4683177;30;20725;-85
2023/04/13 14:49:57;;;;;;;;;;;;;;;;;;4694618;30;20006;-85
2023/04/13 14:52:23;;;;;;;;;;;;;;;;;;4694757;30;22047;-85
2023/04/13 14:54:52;;;;;;;;;;;;;;;;;;4676686;30;19988;-85
2023/04/13 14:57:21;;;;;;;;;;;;;;;;;;4682872;30;19965;-85
2023/04/13 14:59:47;;;;;;;;;;;;;;;;;;4690220;30;20766;-86
2023/04/13 15:02:14;;;;;;;;;;;;;;;;;;4690476;30;19934;-85
2023/04/13 15:04:41;;;;;;;;;;;;;;;;;;4681789;30;19926;-86
2023/04/13 15:07:08;;;;;;;;;;;;;;;;;;4688370;30;19930;-85
2023/04/13 15:09:33;;;;;;;;;;;;;;;;;;4686969;30;19942;-86
2023/04/13 15:11:59;;;;;;;;;;;;;;;;;;4676890;30;20552;-85
2023/04/13 15:14:25;;;;;;;;;;;;;;;;;;4698843;30;19926;-85
2023/04/13 15:16:53;;;;;;;;;;;;;;;;;;4677847;30;21669;-85
2023/04/13 15:19:19;;;;;;;;;;;;;;;;;;4691710;30;19935;-86
2023/04/13 15:21:47;;;;;;;;;;;;;;;;;;4708365;30;20473;-85
2023/04/13 15:24:13;;;;;;;;;;;;;;;;;;4695390;30;19934;-85
2023/04/13 15:26:39;;;;;;;;;;;;;;;;;;4709226;30;19934;-85
2023/04/13 15:29:05;;;;;;;;;;;;;;;;;;4665032;30;19934;-85
2023/04/13 15:31:31;;;;;;;;;;;;;;;;;;4679932;30;19984;-85
2023/04/13 15:33:57;;;;;;;;;;;;;;;;;;4677060;30;19988;-85
2023/04/13 15:36:23;;;;;;;;;;;;;;;;;;4681332;30;19927;-85
2023/04/13 15:38:49;;;;;;;;;;;;;;;;;;4686420;30;20292;-85
2023/04/13 15:41:18;;;;;;;;;;;;;;;;;;4680880;30;19969;-85
2023/04/13 15:43:44;;;;;;;;;;;;;;;;;;4678212;30;19974;-85
2023/04/13 15:46:10;;;;;;;;;;;;;;;;;;4686821;30;21328;-85
2023/04/13 15:48:36;;;;;;;;;;;;;;;;;;4673909;30;20399;-85
2023/04/13 15:51:02;;;;;;;;;;;;;;;;;;4671898;30;20299;-86
2023/04/13 15:53:28;;;;;;;;;;;;;;;;;;4694431;30;19937;-85
2023/04/13 15:55:54;;;;;;;;;;;;;;;;;;4673228;30;19946;-86
2023/04/13 15:58:20;;;;;;;;;;;;;;;;;;4693936;30;19934;-86
2023/04/13 16:00:46;;;;;;;;;;;;;;;;;;4679569;30;19939;-85
2023/04/13 16:03:12;;;;;;;;;;;;;;;;;;4668158;30;19942;-86
2023/04/13 16:05:38;;;;;;;;;;;;;;;;;;4662676;30;20413;-85
2023/04/13 16:08:04;;;;;;;;;;;;;;;;;;4686607;30;19934;-86
2023/04/13 16:10:30;;;;;;;;;;;;;;;;;;4686067;30;19934;-85
2023/04/13 16:12:57;;;;;;;;;;;;;;;;;;4693227;30;19941;-85
2023/04/13 16:15:23;;;;;;;;;;;;;;;;;;4674676;30;19930;-85
2023/04/13 16:17:49;;;;;;;;;;;;;;;;;;4693512;30;19981;-85
2023/04/13 16:20:19;;;;;;;;;;;;;;;;;;4689043;30;19939;-85
2023/04/13 16:22:50;;;;;;;;;;;;;;;;;;4691398;30;20008;-85
2023/04/13 16:25:17;;;;;;;;;;;;;;;;;;4674298;30;19939;-85
2023/04/13 16:27:44;;;;;;;;;;;;;;;;;;4676185;30;19935;-85
2023/04/13 16:30:10;;;;;;;;;;;;;;;;;;4690952;30;19935;-86
2023/04/13 16:32:36;;;;;;;;;;;;;;;;;;4692272;30;19988;-85
2023/04/13 16:35:02;;;;;;;;;;;;;;;;;;4669737;30;19938;-85
2023/04/13 16:37:28;;;;;;;;;;;;;;;;;;4674666;30;19935;-85
2023/04/13 16:39:54;;;;;;;;;;;;;;;;;;4670235;30;19931;-85
2023/04/13 16:42:20;;;;;;;;;;;;;;;;;;4663979;30;19951;-85
2023/04/13 16:44:46;;;;;;;;;;;;;;;;;;4690121;30;19935;-86
2023/04/13 16:47:12;;;;;;;;;;;;;;;;;;4689693;30;19931;-86
2023/04/13 16:49:38;;;;;;;;;;;;;;;;;;4676457;30;20033;-86
2023/04/13 16:52:04;;;;;;;;;;;;;;;;;;4671781;30;19934;-86
2023/04/13 16:54:30;;;;;;;;;;;;;;;;;;4690107;30;20842;-86
2023/04/13 16:56:56;;;;;;;;;;;;;;;;;;4658817;30;19935;-87
2023/04/13 16:59:22;;;;;;;;;;;;;;;;;;4662337;30;20293;-85
2023/04/13 17:01:49;;;;;;;;;;;;;;;;;;4658493;30;19942;-86
2023/04/13 17:04:15;;;;;;;;;;;;;;;;;;4668041;30;20026;-86
2023/04/13 17:06:41;;;;;;;;;;;;;;;;;;4683112;30;19931;-86
2023/04/13 17:09:07;;;;;;;;;;;;;;;;;;4663023;30;19938;-86
2023/04/13 17:11:33;;;;;;;;;;;;;;;;;;4664962;30;19951;-86
2023/04/13 17:13:59;;;;;;;;;;;;;;;;;;4673717;30;19934;-86
2023/04/13 17:16:28;;;;;;;;;;;;;;;;;;4681608;30;19934;-86
2023/04/13 17:18:53;;;;;;;;;;;;;;;;;;4675534;30;19934;-86
2023/04/13 17:21:19;;;;;;;;;;;;;;;;;;4666934;30;19986;-86
2023/04/13 17:23:46;;;;;;;;;;;;;;;;;;4686937;30;19934;-86
2023/04/13 17:26:12;;;;;;;;;;;;;;;;;;4661726;30;19935;-86
2023/04/13 17:28:38;;;;;;;;;;;;;;;;;;4679091;30;19947;-87
2023/04/13 17:31:08;;;;;;;;;;;;;;;;;;4665780;30;19942;-87
2023/04/13 17:33:33;;;;;;;;;;;;;;;;;;4679191;30;19931;-86
2023/04/13 17:35:59;;;;;;;;;;;;;;;;;;4678439;30;20362;-86
2023/04/13 17:38:26;;;;;;;;;;;;;;;;;;4678484;30;19931;-86
2023/04/13 17:40:54;;;;;;;;;;;;;;;;;;4670460;30;19935;-87
2023/04/13 17:43:20;;;;;;;;;;;;;;;;;;4678364;30;19935;-85
2023/04/13 17:45:46;;;;;;;;;;;;;;;;;;4667693;30;20558;-86
2023/04/13 17:48:12;;;;;;;;;;;;;;;;;;4660094;30;20021;-85
2023/04/13 17:50:39;;;;;;;;;;;;;;;;;;4677454;30;19974;-86
2023/04/13 17:53:05;;;;;;;;;;;;;;;;;;4687847;30;19989;-86
2023/04/13 17:55:32;;;;;;;;;;;;;;;;;;4678945;30;19934;-86
2023/04/13 17:57:58;;;;;;;;;;;;;;;;;;4675887;30;19926;-86
2023/04/13 18:00:25;;;;;;;;;;;;;;;;;;4667038;30;19935;-86
2023/04/13 18:02:51;;;;;;;;;;;;;;;;;;4675632;30;20341;-86
2023/04/13 18:05:17;;;;;;;;;;;;;;;;;;4690016;30;20451;-86
2023/04/13 18:08:02;;;;;;;;;;;;;;;;;;4682857;30;20291;-86
2023/04/13 18:10:28;;;;;;;;;;;;;;;;;;4678298;30;20073;-86
2023/04/13 18:12:54;;;;;;;;;;;;;;;;;;4671642;30;20029;-86
2023/04/13 18:15:20;;;;;;;;;;;;;;;;;;4660818;30;19945;-86
2023/04/13 18:17:46;;;;;;;;;;;;;;;;;;4689840;30;20018;-86
2023/04/13 18:20:12;;;;;;;;;;;;;;;;;;4676719;30;19939;-86
2023/04/13 18:22:38;;;;;;;;;;;;;;;;;;4673826;30;20412;-86
2023/04/13 18:25:05;;;;;;;;;;;;;;;;;;4662051;30;19934;-86
2023/04/13 18:27:31;;;;;;;;;;;;;;;;;;4660570;30;19937;-86
2023/04/13 18:29:57;;;;;;;;;;;;;;;;;;4670610;30;19965;-86
2023/04/13 18:32:22;;;;;;;;;;;;;;;;;;4668574;30;20063;-86
2023/04/13 18:34:51;;;;;;;;;;;;;;;;;;4672127;30;20400;-86
2023/04/13 18:37:17;;;;;;;;;;;;;;;;;;4663522;30;20014;-86
2023/04/13 18:39:43;;;;;;;;;;;;;;;;;;4665337;30;19941;-86
2023/04/13 18:42:09;;;;;;;;;;;;;;;;;;4674153;30;19931;-86
2023/04/13 18:44:35;;;;;;;;;;;;;;;;;;4672083;30;19934;-86
2023/04/13 18:47:01;;;;;;;;;;;;;;;;;;4669433;30;19943;-87
2023/04/13 18:49:27;;;;;;;;;;;;;;;;;;4676350;30;19927;-87
2023/04/13 18:51:53;;;;;;;;;;;;;;;;;;4674239;30;20375;-87
2023/04/13 18:54:19;;;;;;;;;;;;;;;;;;4698743;30;19934;-86
2023/04/13 18:56:45;;;;;;;;;;;;;;;;;;4694178;30;20029;-87
2023/04/13 18:59:11;;;;;;;;;;;;;;;;;;4674006;30;19939;-86
2023/04/13 19:01:37;;;;;;;;;;;;;;;;;;4677593;30;19985;-86
2023/04/13 19:04:03;;;;;;;;;;;;;;;;;;4691114;30;19927;-87
2023/04/13 19:06:29;;;;;;;;;;;;;;;;;;4681009;30;19942;-86
2023/04/13 19:08:55;;;;;;;;;;;;;;;;;;4690089;30;19938;-86
2023/04/13 19:11:23;;;;;;;;;;;;;;;;;;4664470;30;19939;-86
2023/04/13 19:13:49;;;;;;;;;;;;;;;;;;4658524;30;20063;-86
2023/04/13 19:16:20;;;;;;;;;;;;;;;;;;4675779;30;19930;-87
2023/04/13 19:18:46;;;;;;;;;;;;;;;;;;4674018;30;19938;-86
2023/04/13 19:21:12;;;;;;;;;;;;;;;;;;4654906;30;19935;-86
2023/04/13 19:26:41;;;;;;;;;;;;;;;;;;4660664;30;19965;-85
2023/04/13 19:29:07;;;;;;;;;;;;;;;;;;5349350;24;19985;-92
2023/04/13 19:31:33;;;;;;;;;;;;;;;;;;4696776;30;20046;-93
2023/04/13 19:33:59;;;;;;;;;;;;;;;;;;4697536;30;19980;-92
2023/04/13 19:36:25;;;;;;;;;;;;;;;;;;4696236;30;20008;-92
2023/04/13 19:38:54;;;;;;;;;;;;;;;;;;4682658;30;19935;-92
2023/04/13 19:41:20;;;;;;;;;;;;;;;;;;4688234;30;19934;-92
2023/04/13 19:43:46;;;;;;;;;;;;;;;;;;4687007;30;19934;-93
2023/04/13 19:46:15;;;;;;;;;;;;;;;;;;4683259;30;20047;-92
2023/04/13 19:48:41;;;;;;;;;;;;;;;;;;4683075;30;19969;-92
2023/04/13 19:51:07;;;;;;;;;;;;;;;;;;4696407;30;19927;-93
2023/04/13 20:02:39;;;;;;;;;;;;;;;;;;4702474;30;19930;-92
2023/04/13 20:08:25;;;;;;;;;;;;;;;;;;4674119;30;20316;-93
2023/04/13 20:11:13;;;;;;;;;;;;;;;;;;;;;
2023/04/13 20:13:45;;;;;;;;;;;;;;;;;;4701007;30;19930;-92
2023/04/13 20:16:31;;;;;;;;;;;;;;;;;;;;;
2023/04/13 20:19:13;;;;;;;;;;;;;;;;;;;;;
2023/04/13 20:22:10;;;;;;;;;;;;;;;;;;;;;
2023/04/13 20:24:54;;;;;;;;;;;;;;;;;;4692577;30;19930;-92
2023/04/13 20:27:38;;;;;;;;;;;;;;;;;;4706634;30;19926;-93
2023/04/13 20:33:31;;;;;;;;;;;;;;;;;;4621593;30;19936;-93
2023/04/13 20:36:00;;;;;;;;;;;;;;;;;;4676156;30;20388;-93
2023/04/13 20:38:47;;;;;;;;;;;;;;;;;;4706804;30;20079;-93
2023/04/13 20:41:17;;;;;;;;;;;;;;;;;;4666402;30;19934;-93
2023/04/13 20:47:24;;;;;;;;;;;;;;;;;;4643552;30;19932;-92
2023/04/13 20:49:58;;;;;;;;;;;;;;;;;;4630248;30;20397;-94
2023/04/13 20:58:56;;;;;;;;;;;;;;;;;;4640340;30;19931;-92
2023/04/13 21:01:24;;;;;;;;;;;;;;;;;;4642774;30;19935;-92
2023/04/13 21:03:53;;;;;;;;;;;;;;;;;;4711328;30;20292;-92
2023/04/13 21:06:21;;;;;;;;;;;;;;;;;;4680942;30;19935;-92
2023/04/13 21:08:51;;;;;;;;;;;;;;;;;;4706787;30;20072;-92
2023/04/13 21:11:17;;;;;;;;;;;;;;;;;;4684774;30;20005;-92
2023/04/13 21:13:46;;;;;;;;;;;;;;;;;;4682398;30;19935;-92
2023/04/13 21:16:12;;;;;;;;;;;;;;;;;;4690802;30;19938;-92
2023/04/13 21:18:40;;;;;;;;;;;;;;;;;;4694357;30;20739;-92
2023/04/13 21:21:06;;;;;;;;;;;;;;;;;;4678419;30;20469;-92
2023/04/13 21:23:32;;;;;;;;;;;;;;;;;;4673314;30;19934;-92
2023/04/13 21:25:58;;;;;;;;;;;;;;;;;;4677837;30;19931;-92
2023/04/13 21:28:24;;;;;;;;;;;;;;;;;;4683965;30;19935;-93
2023/04/13 21:30:50;;;;;;;;;;;;;;;;;;4683055;30;19949;-94
2023/04/13 21:33:16;;;;;;;;;;;;;;;;;;4681016;30;20263;-92
2023/04/13 21:35:42;;;;;;;;;;;;;;;;;;4684100;30;20407;-92
2023/04/13 21:38:08;;;;;;;;;;;;;;;;;;4678259;30;19931;-92
2023/04/13 21:40:34;;;;;;;;;;;;;;;;;;4683072;30;19936;-93
2023/04/13 21:43:00;;;;;;;;;;;;;;;;;;4702497;30;20067;-93
2023/04/13 21:45:26;;;;;;;;;;;;;;;;;;4665601;30;19931;-92
2023/04/13 21:47:53;;;;;;;;;;;;;;;;;;4684515;30;19927;-93
2023/04/13 21:50:22;;;;;;;;;;;;;;;;;;4700170;30;19935;-93